sensor_id;sensor_type;location;lat;lon;timestamp;temperature;humidity
20438;DHT22;65664;50.380;8.812;2023-10-31T17:05:53;13.10;66.80
20438;DHT22;65664;50.380;8.812;2023-10-31T17:08:23;13.10;66.70
20438;DHT22;65664;50.380;8.812;2023-10-31T17:10:57;13.10;66.20
20438;DHT22;65664;50.380;8.812;2023-10-31T17:13:24;13.20;64.90
20438;DHT22;65664;50.380;8.812;2023-10-31T17:15:54;13.30;63.80
20438;DHT22;65664;50.380;8.812;2023-10-31T17:18:22;13.40;63.40
20438;DHT22;65664;50.380;8.812;2023-10-31T17:20:51;13.50;62.50
20438;DHT22;65664;50.380;8.812;2023-10-31T17:23:21;13.50;60.90
20438;DHT22;65664;50.380;8.812;2023-10-31T17:25:52;13.50;61.20
20438;DHT22;65664;50.380;8.812;2023-10-31T17:28:21;13.60;61.10
20438;DHT22;65664;50.380;8.812;2023-10-31T17:30:48;13.60;59.80
20438;DHT22;65664;50.380;8.812;2023-10-31T17:33:15;13.60;60.50
20438;DHT22;65664;50.380;8.812;2023-10-31T17:35:42;13.60;62.00
20438;DHT22;65664;50.380;8.812;2023-10-31T19:13:08;12.50;90.60
20438;DHT22;65664;50.380;8.812;2023-10-31T19:15:37;12.70;91.90
20438;DHT22;65664;50.380;8.812;2023-10-31T19:18:05;12.80;92.10
20438;DHT22;65664;50.380;8.812;2023-10-31T19:20:32;12.80;92.30
20438;DHT22;65664;50.380;8.812;2023-10-31T19:23:00;12.90;92.60
20438;DHT22;65664;50.380;8.812;2023-10-31T19:25:28;13.00;92.40
20438;DHT22;65664;50.380;8.812;2023-10-31T19:27:56;13.00;92.20
20438;DHT22;65664;50.380;8.812;2023-10-31T19:30:26;13.10;92.10
20438;DHT22;65664;50.380;8.812;2023-10-31T19:32:53;13.00;92.20
20438;DHT22;65664;50.380;8.812;2023-10-31T19:35:20;13.00;92.60
20438;DHT22;65664;50.380;8.812;2023-10-31T19:37:49;13.00;93.10
20438;DHT22;65664;50.380;8.812;2023-10-31T19:40:17;13.10;92.60
20438;DHT22;65664;50.380;8.812;2023-10-31T19:42:45;13.00;92.80
20438;DHT22;65664;50.380;8.812;2023-10-31T20:15:00;12.50;98.40
20438;DHT22;65664;50.380;8.812;2023-10-31T20:17:26;12.60;99.10
20438;DHT22;65664;50.380;8.812;2023-10-31T20:19:53;12.70;98.40
20438;DHT22;65664;50.380;8.812;2023-10-31T20:22:20;12.80;97.60
20438;DHT22;65664;50.380;8.812;2023-10-31T20:24:47;12.90;96.70
20438;DHT22;65664;50.380;8.812;2023-10-31T20:27:14;12.90;96.00
20438;DHT22;65664;50.380;8.812;2023-10-31T20:29:41;13.10;95.40
20438;DHT22;65664;50.380;8.812;2023-10-31T20:32:10;13.10;94.50
20438;DHT22;65664;50.380;8.812;2023-10-31T20:34:38;13.10;94.10
20438;DHT22;65664;50.380;8.812;2023-10-31T20:37:06;13.00;94.30
20438;DHT22;65664;50.380;8.812;2023-10-31T20:39:33;13.00;94.60
20438;DHT22;65664;50.380;8.812;2023-10-31T20:42:00;13.10;94.00
20438;DHT22;65664;50.380;8.812;2023-10-31T20:44:27;13.20;93.70
20438;DHT22;65664;50.380;8.812;2023-10-31T21:07:54;12.50;98.90
20438;DHT22;65664;50.380;8.812;2023-10-31T21:10:21;12.60;99.30
20438;DHT22;65664;50.380;8.812;2023-10-31T21:12:48;12.60;98.80
20438;DHT22;65664;50.380;8.812;2023-10-31T21:15:15;12.80;98.20
20438;DHT22;65664;50.380;8.812;2023-10-31T21:20:08;12.90;96.90
